Troviken — C6ZT9 — position and weather

sailwx.info

Track history (hours):
 
Tides and Currents Weather Stations Pressure Air Temp Water Temp Dewpoint Dewpoint Depression Visibility Wind Speed Wind Dir Waves Ship Positions

Troviken

Last reported at 2016-Aug-22 04:19 UTC. Time now 2016-Aug-28 20:41 UTC.
Position N 29°26' W 093°38'.

Length 250 m; draft 8.5 m.

Type: Tanker. MMSI: 311066200.

Date/timePositionNaut miles runAvg speedWind from/ knotsBaromVisibWave heightAir tempDewpointWater temp
2016-Aug-22 04:19N 29°26' W 093°38'0 0.6
2016-Aug-22 03:28N 29°26' W 093°39'8 8.6
2016-Aug-22 02:31N 29°18' W 093°39'  
2016-Aug-19 14:33N 29°26' W 094°50'1110.8
2016-Aug-19 13:33N 29°35' W 094°56'10 9.6
2016-Aug-19 12:33N 29°44' W 095°01'5 5.3
2016-Aug-19 11:33N 29°44' W 095°07'0 0.2
2016-Aug-19 10:31N 29°44' W 095°07'  
2016-Aug-17 01:21N 29°44' W 095°07'0 0.0
2016-Aug-17 00:33N 29°44' W 095°07'3 3.0
2016-Aug-16 23:33N 29°46' W 095°04'7 6.9
2016-Aug-16 22:33N 29°41' W 094°59'1010.1
2016-Aug-16 21:32N 29°31' W 094°53'1110.6
2016-Aug-16 20:32N 29°22' W 094°48'  
2016-Aug-12 11:06N 28°45' W 094°14'1610.6
2016-Aug-12 09:33N 28°42' W 093°55'1 0.5
2016-Aug-12 08:14N 28°41' W 093°56'0 0.6
2016-Aug-12 07:22N 28°41' W 093°55'0 0.2
2016-Aug-12 06:31N 28°41' W 093°55'  
Track history (hours):
 
Tides and Currents Weather Stations Pressure Air Temp Water Temp Dewpoint Dewpoint Depression Visibility Wind Speed Wind Dir Waves Ship Positions

Troviken

Last reported at 2016-Aug-22 04:19 UTC. Time now 2016-Aug-28 20:41 UTC.
Position N 29°26' W 093°38'.

Length 250 m; draft 8.5 m.

Type: Tanker. MMSI: 311066200.

Date/timePositionNaut miles runAvg speedWind from/ knotsBaromVisibWave heightAir tempDewpointWater temp
2016-Aug-22 04:19N 29°26' W 093°38'0 0.6
2016-Aug-22 03:28N 29°26' W 093°39'8 8.6
2016-Aug-22 02:31N 29°18' W 093°39'  
2016-Aug-19 14:33N 29°26' W 094°50'1110.8
2016-Aug-19 13:33N 29°35' W 094°56'10 9.6
2016-Aug-19 12:33N 29°44' W 095°01'5 5.3
2016-Aug-19 11:33N 29°44' W 095°07'0 0.2
2016-Aug-19 10:31N 29°44' W 095°07'  
2016-Aug-17 01:21N 29°44' W 095°07'0 0.0
2016-Aug-17 00:33N 29°44' W 095°07'3 3.0
2016-Aug-16 23:33N 29°46' W 095°04'7 6.9
2016-Aug-16 22:33N 29°41' W 094°59'1010.1
2016-Aug-16 21:32N 29°31' W 094°53'1110.6
2016-Aug-16 20:32N 29°22' W 094°48'  
2016-Aug-12 11:06N 28°45' W 094°14'1610.6
2016-Aug-12 09:33N 28°42' W 093°55'1 0.5
2016-Aug-12 08:14N 28°41' W 093°56'0 0.6
2016-Aug-12 07:22N 28°41' W 093°55'0 0.2
2016-Aug-12 06:31N 28°41' W 093°55'  

Dump ship's entire track history